createdAt,value
2023-05-05T00:00:41.174Z,9.38
2023-05-05T00:02:59.269Z,12.63
2023-05-05T00:05:16.188Z,7.97
2023-05-05T00:07:33.453Z,10.10
2023-05-05T00:09:50.808Z,9.60
2023-05-05T00:12:08.138Z,10.90
2023-05-05T00:14:26.375Z,12.60
2023-05-05T00:16:43.679Z,13.77
2023-05-05T00:19:00.806Z,12.95
2023-05-05T00:21:18.153Z,13.48
2023-05-05T00:23:36.515Z,10.98
2023-05-05T00:25:53.782Z,11.90
2023-05-05T00:28:11.040Z,14.30
2023-05-05T00:30:28.304Z,14.70
2023-05-05T00:32:45.705Z,14.77
2023-05-05T00:35:02.955Z,12.60
2023-05-05T00:37:19.921Z,12.75
2023-05-05T00:39:37.146Z,13.18
2023-05-05T00:41:54.766Z,15.15
2023-05-05T00:44:12.082Z,11.13
2023-05-05T00:46:29.480Z,12.05
2023-05-05T00:48:46.812Z,13.45
2023-05-05T00:51:04.172Z,13.30
2023-05-05T00:53:21.835Z,10.18
2023-05-05T00:55:40.096Z,9.85
2023-05-05T00:57:57.390Z,10.60
2023-05-05T01:00:15.661Z,9.95
2023-05-05T01:02:32.876Z,11.73
2023-05-05T01:04:50.361Z,11.18
2023-05-05T01:07:07.298Z,12.05
2023-05-05T01:09:24.307Z,11.13
2023-05-05T01:11:42.442Z,16.98
2023-05-05T01:13:59.895Z,10.48
2023-05-05T01:16:18.248Z,12.20
2023-05-05T01:18:35.243Z,12.35
2023-05-05T01:20:52.460Z,11.68
2023-05-05T01:23:09.705Z,16.83
2023-05-05T01:25:26.958Z,11.50
2023-05-05T01:27:43.868Z,12.15
2023-05-05T01:30:01.495Z,11.25
2023-05-05T01:32:18.823Z,11.10
2023-05-05T01:34:35.816Z,11.48
2023-05-05T01:36:53.215Z,12.15
2023-05-05T01:39:11.410Z,10.82
2023-05-05T01:41:29.018Z,10.48
2023-05-05T01:43:46.238Z,11.18
2023-05-05T01:46:03.554Z,10.30
2023-05-05T01:48:21.772Z,10.30
2023-05-05T01:50:39.014Z,11.15
2023-05-05T01:52:56.248Z,12.85
2023-05-05T01:55:13.553Z,12.00
2023-05-05T01:57:31.194Z,11.18
2023-05-05T01:59:48.261Z,10.27
2023-05-05T02:02:06.969Z,11.02
2023-05-05T02:04:24.642Z,13.30
2023-05-05T02:06:42.930Z,10.93
2023-05-05T02:09:00.250Z,10.55
2023-05-05T02:11:17.544Z,10.73
2023-05-05T02:13:34.929Z,11.02
2023-05-05T02:15:52.297Z,10.40
2023-05-05T02:18:09.616Z,9.77
2023-05-05T02:20:26.905Z,10.55
2023-05-05T02:22:44.620Z,9.75
2023-05-05T02:25:02.298Z,11.02
2023-05-05T02:27:19.555Z,10.43
2023-05-05T02:29:36.836Z,10.07
2023-05-05T02:31:54.472Z,10.27
2023-05-05T02:34:11.728Z,10.40
2023-05-05T02:36:29.095Z,10.07
2023-05-05T02:38:46.370Z,11.90
2023-05-05T02:41:03.729Z,13.50
2023-05-05T02:43:21.060Z,9.77
2023-05-05T02:45:38.400Z,9.80
2023-05-05T02:47:55.857Z,10.25
2023-05-05T02:50:14.181Z,10.95
2023-05-05T02:52:31.478Z,13.18
2023-05-05T02:54:48.913Z,14.15
2023-05-05T02:57:06.498Z,11.00
2023-05-05T02:59:23.778Z,10.23
2023-05-05T03:01:41.423Z,12.52
2023-05-05T03:03:58.817Z,10.70
2023-05-05T03:06:16.574Z,10.27
2023-05-05T03:08:34.002Z,10.25
2023-05-05T03:10:51.253Z,9.60
2023-05-05T03:13:08.993Z,11.13
2023-05-05T03:15:26.270Z,10.45
2023-05-05T03:17:43.525Z,10.02
2023-05-05T03:20:03.424Z,9.10
2023-05-05T03:22:21.140Z,9.95
2023-05-05T03:24:38.359Z,8.68
2023-05-05T03:26:56.637Z,10.07
2023-05-05T03:29:13.915Z,11.07
2023-05-05T03:31:32.234Z,10.07
2023-05-05T03:33:49.589Z,11.23
2023-05-05T03:36:06.862Z,9.68
2023-05-05T03:38:24.059Z,10.35
2023-05-05T03:40:44.555Z,13.20
2023-05-05T03:43:02.676Z,10.75
2023-05-05T03:45:20.395Z,9.93
2023-05-05T03:47:37.648Z,11.18
2023-05-05T03:49:55.214Z,11.95
2023-05-05T03:52:14.476Z,9.82
2023-05-05T03:54:31.891Z,10.13
2023-05-05T03:56:49.179Z,11.43
2023-05-05T03:59:06.147Z,10.40
2023-05-05T04:01:23.808Z,12.25
2023-05-05T04:03:41.252Z,9.48
2023-05-05T04:05:58.629Z,11.77
2023-05-05T04:08:16.934Z,11.88
2023-05-05T04:10:34.240Z,11.32
2023-05-05T04:12:51.567Z,12.13
2023-05-05T04:15:12.382Z,10.75
2023-05-05T04:17:29.683Z,10.20
2023-05-05T04:19:46.781Z,11.85
2023-05-05T04:22:03.691Z,12.13
2023-05-05T04:24:21.060Z,11.43
2023-05-05T04:26:38.370Z,11.30
2023-05-05T04:28:55.720Z,11.20
2023-05-05T04:31:12.946Z,10.65
2023-05-05T04:33:29.966Z,12.20
2023-05-05T04:35:47.287Z,10.93
2023-05-05T04:38:04.296Z,11.10
2023-05-05T04:40:21.566Z,9.25
2023-05-05T04:42:38.890Z,9.85
2023-05-05T04:44:56.782Z,14.52
2023-05-05T04:47:15.072Z,11.40
2023-05-05T04:49:31.916Z,12.23
2023-05-05T04:51:49.239Z,12.25
2023-05-05T04:54:06.517Z,12.43
2023-05-05T04:56:23.455Z,11.95
2023-05-05T04:58:40.467Z,12.25
2023-05-05T05:00:57.386Z,11.05
2023-05-05T05:03:14.794Z,10.70
2023-05-05T05:05:32.499Z,12.75
2023-05-05T05:07:50.789Z,10.27
2023-05-05T05:10:08.354Z,9.82
2023-05-05T05:12:25.636Z,11.80
2023-05-05T05:14:42.880Z,12.98
2023-05-05T05:17:00.030Z,12.43
2023-05-05T05:19:17.075Z,10.38
2023-05-05T05:21:34.320Z,12.15
2023-05-05T05:23:51.635Z,11.57
2023-05-05T05:26:08.886Z,14.45
2023-05-05T05:28:26.191Z,12.52
2023-05-05T05:30:43.565Z,13.63
2023-05-05T05:33:01.843Z,14.77
2023-05-05T05:35:18.921Z,16.42
2023-05-05T05:37:35.868Z,11.90
2023-05-05T05:39:53.652Z,13.82
2023-05-05T05:42:10.603Z,10.23
2023-05-05T05:44:27.855Z,13.38
2023-05-05T05:46:45.210Z,11.15
2023-05-05T05:49:02.509Z,13.30
2023-05-05T05:51:23.133Z,12.13
2023-05-05T05:53:40.128Z,11.00
2023-05-05T05:55:57.022Z,11.15
2023-05-05T05:58:14.987Z,11.85
2023-05-05T06:00:32.613Z,9.90
2023-05-05T06:02:49.808Z,12.30
2023-05-05T06:05:07.218Z,10.88
2023-05-05T06:07:24.143Z,11.80
2023-05-05T06:09:41.414Z,10.90
2023-05-05T06:11:58.750Z,10.45
2023-05-05T06:14:18.187Z,13.07
2023-05-05T06:16:36.977Z,9.43
2023-05-05T06:18:54.313Z,10.90
2023-05-05T06:21:11.580Z,10.45
2023-05-05T06:23:28.452Z,11.13
2023-05-05T06:25:46.118Z,9.50
2023-05-05T06:28:03.787Z,11.60
2023-05-05T06:30:21.225Z,12.10
2023-05-05T06:32:39.493Z,12.50
2023-05-05T06:34:57.790Z,12.30
2023-05-05T06:37:16.102Z,8.63
2023-05-05T06:39:33.551Z,9.27
2023-05-05T06:41:50.859Z,9.10
2023-05-05T06:44:08.123Z,10.80
2023-05-05T06:46:25.870Z,8.68
2023-05-05T06:48:43.177Z,9.65
2023-05-05T06:51:00.458Z,9.02
2023-05-05T06:53:17.705Z,12.10
2023-05-05T06:55:34.620Z,8.25
2023-05-05T06:57:51.849Z,7.38
2023-05-05T07:00:09.386Z,9.10
2023-05-05T07:02:27.091Z,9.60
2023-05-05T07:04:44.436Z,12.95
2023-05-05T07:07:01.761Z,10.23
2023-05-05T07:09:19.397Z,7.35
2023-05-05T07:11:36.721Z,10.27
2023-05-05T07:13:54.056Z,7.18
2023-05-05T07:16:11.381Z,8.70
2023-05-05T07:18:28.449Z,9.60
2023-05-05T07:20:45.805Z,9.48
2023-05-05T07:23:02.748Z,7.50
2023-05-05T07:25:19.775Z,9.73
2023-05-05T07:27:39.259Z,8.88
2023-05-05T07:29:57.650Z,8.00
2023-05-05T07:32:14.976Z,7.55
2023-05-05T07:34:32.254Z,8.32
2023-05-05T07:36:49.478Z,6.63
2023-05-05T07:39:06.736Z,8.85
2023-05-05T07:41:23.977Z,10.18
2023-05-05T07:43:44.188Z,8.40
2023-05-05T07:46:01.764Z,7.85
2023-05-05T07:48:19.502Z,7.30
2023-05-05T07:50:37.145Z,9.05
2023-05-05T07:53:02.423Z,6.85
2023-05-05T07:55:27.792Z,7.32
2023-05-05T07:57:44.863Z,5.00
2023-05-05T08:00:02.135Z,8.95
2023-05-05T08:02:19.469Z,6.05
2023-05-05T08:04:36.439Z,6.93
2023-05-05T08:06:53.868Z,6.78
2023-05-05T08:09:11.201Z,6.57
2023-05-05T08:11:29.539Z,4.68
2023-05-05T08:13:46.979Z,4.25
2023-05-05T08:16:04.624Z,4.25
2023-05-05T08:18:22.897Z,5.00
2023-05-05T08:20:40.196Z,7.40
2023-05-05T08:22:57.518Z,7.40
2023-05-05T08:25:14.800Z,4.35
2023-05-05T08:27:31.994Z,5.53
2023-05-05T08:29:49.314Z,6.35
2023-05-05T08:32:06.219Z,4.80
2023-05-05T08:34:24.652Z,2.58
2023-05-05T08:36:41.711Z,3.30
2023-05-05T08:38:58.751Z,2.67
2023-05-05T08:41:17.050Z,4.22
2023-05-05T08:43:34.363Z,2.28
2023-05-05T08:45:51.628Z,3.67
2023-05-05T08:48:08.683Z,4.13
2023-05-05T08:50:26.117Z,3.47
2023-05-05T08:52:43.174Z,2.03
2023-05-05T08:55:00.460Z,2.95
2023-05-05T08:57:18.709Z,5.15
2023-05-05T08:59:36.029Z,2.80
2023-05-05T09:01:52.984Z,2.38
2023-05-05T09:04:10.041Z,2.95
2023-05-05T09:06:27.283Z,4.47
2023-05-05T09:08:44.178Z,4.63
2023-05-05T09:11:01.448Z,2.95
2023-05-05T09:13:18.851Z,2.08
2023-05-05T09:15:36.306Z,4.07
2023-05-05T09:17:53.678Z,3.00
2023-05-05T09:20:10.983Z,2.40
2023-05-05T09:22:28.292Z,2.40
2023-05-05T09:24:45.293Z,4.65
2023-05-05T09:27:02.630Z,3.65
2023-05-05T09:29:20.636Z,5.32
2023-05-05T09:31:37.986Z,3.00
2023-05-05T09:33:55.092Z,4.72
2023-05-05T09:36:12.401Z,1.80
2023-05-05T09:38:29.696Z,2.47
2023-05-05T09:40:46.741Z,2.83
2023-05-05T09:43:04.253Z,2.42
2023-05-05T09:45:21.473Z,5.35
2023-05-05T09:47:39.779Z,5.20
2023-05-05T09:49:58.061Z,3.63
2023-05-05T09:52:16.755Z,3.30
2023-05-05T09:54:34.065Z,3.38
2023-05-05T09:56:51.358Z,1.88
2023-05-05T09:59:08.748Z,2.25
2023-05-05T10:01:26.030Z,3.63
2023-05-05T10:03:42.998Z,2.13
2023-05-05T10:06:00.239Z,3.10
2023-05-05T10:08:17.273Z,4.90
2023-05-05T10:10:35.337Z,2.13
2023-05-05T10:12:52.335Z,2.05
2023-05-05T10:15:09.641Z,2.20
2023-05-05T10:17:26.930Z,1.40
2023-05-05T10:19:44.002Z,1.75
2023-05-05T10:22:01.575Z,1.48
2023-05-05T10:24:18.575Z,1.35
2023-05-05T10:26:35.817Z,0.95
2023-05-05T10:28:53.095Z,2.58
2023-05-05T10:31:23.955Z,1.25
2023-05-05T10:33:42.631Z,2.58
2023-05-05T10:35:59.902Z,1.02
2023-05-05T10:38:17.148Z,1.60
2023-05-05T10:40:34.592Z,2.55
2023-05-05T10:42:51.534Z,2.13
2023-05-05T10:45:08.858Z,3.60
2023-05-05T10:47:26.247Z,1.88
2023-05-05T10:49:43.473Z,3.08
2023-05-05T10:52:00.805Z,1.20
2023-05-05T10:54:17.954Z,2.20
2023-05-05T10:56:35.083Z,1.55
2023-05-05T10:58:59.704Z,1.75
2023-05-05T11:01:17.493Z,2.05
2023-05-05T11:03:35.340Z,2.45
2023-05-05T11:05:52.742Z,3.53
2023-05-05T11:08:10.003Z,1.73
2023-05-05T11:10:27.260Z,1.52
2023-05-05T11:12:44.616Z,1.73
2023-05-05T11:15:02.355Z,2.55
2023-05-05T11:17:19.654Z,1.73
2023-05-05T11:19:37.554Z,1.92
2023-05-05T11:21:54.792Z,2.45
2023-05-05T11:24:12.097Z,2.30
2023-05-05T11:26:29.486Z,1.75
2023-05-05T11:28:46.716Z,2.20
2023-05-05T11:31:04.034Z,2.65
2023-05-05T11:33:22.341Z,3.53
2023-05-05T11:35:39.227Z,1.77
2023-05-05T11:37:56.552Z,1.52
2023-05-05T11:40:13.985Z,1.23
2023-05-05T11:42:31.290Z,1.60
2023-05-05T11:44:49.511Z,1.65
2023-05-05T11:47:06.573Z,2.05
2023-05-05T11:49:23.884Z,1.92
2023-05-05T11:51:41.151Z,2.40
2023-05-05T11:53:59.443Z,2.92
2023-05-05T11:56:16.390Z,1.60
2023-05-05T11:58:33.391Z,4.65
2023-05-05T12:00:50.606Z,2.58
2023-05-05T12:03:08.021Z,1.75
2023-05-05T12:05:25.464Z,2.53
2023-05-05T12:07:43.165Z,3.45
2023-05-05T12:10:00.183Z,3.10
2023-05-05T12:12:17.144Z,1.67
2023-05-05T12:14:34.478Z,2.90
2023-05-05T12:16:51.505Z,2.85
2023-05-05T12:19:09.742Z,1.25
2023-05-05T12:21:27.022Z,2.78
2023-05-05T12:23:44.372Z,5.30
2023-05-05T12:26:01.666Z,1.30
2023-05-05T12:28:19.107Z,2.10
2023-05-05T12:30:37.896Z,3.05
2023-05-05T12:32:55.648Z,2.80
2023-05-05T12:35:12.958Z,2.40
2023-05-05T12:37:30.255Z,1.70
2023-05-05T12:39:47.727Z,3.70
2023-05-05T12:42:06.032Z,3.28
2023-05-05T12:44:23.259Z,3.00
2023-05-05T12:46:40.537Z,1.90
2023-05-05T12:48:57.876Z,3.03
2023-05-05T12:51:15.262Z,3.00
2023-05-05T12:53:32.198Z,1.92
2023-05-05T12:55:49.527Z,2.17
2023-05-05T12:58:06.609Z,1.73
2023-05-05T13:00:23.641Z,1.58
2023-05-05T13:02:40.987Z,2.63
2023-05-05T13:04:58.359Z,3.20
2023-05-05T13:07:15.264Z,3.63
2023-05-05T13:09:32.772Z,2.55
2023-05-05T13:11:50.042Z,3.75
2023-05-05T13:14:07.323Z,3.05
2023-05-05T13:16:25.382Z,3.75
2023-05-05T13:18:42.374Z,2.67
2023-05-05T13:20:59.972Z,5.22
2023-05-05T13:23:18.052Z,4.53
2023-05-05T13:25:35.700Z,3.00
2023-05-05T13:27:52.918Z,3.28
2023-05-05T13:30:09.837Z,3.35
2023-05-05T13:32:27.161Z,11.00
2023-05-05T13:34:45.355Z,5.47
2023-05-05T13:37:02.627Z,2.08
2023-05-05T13:39:20.890Z,2.67
2023-05-05T13:41:39.363Z,3.33
2023-05-05T13:43:57.622Z,2.00
2023-05-05T13:46:20.136Z,3.15
2023-05-05T13:48:37.414Z,3.65
2023-05-05T13:50:55.257Z,2.95
2023-05-05T13:53:12.540Z,2.75
2023-05-05T13:55:29.781Z,3.17
2023-05-05T13:57:47.166Z,3.88
2023-05-05T14:00:04.549Z,4.32
2023-05-05T14:02:21.804Z,3.20
2023-05-05T14:04:39.056Z,4.00
2023-05-05T14:06:56.285Z,5.35
2023-05-05T14:09:13.607Z,3.75
2023-05-05T14:11:30.912Z,3.20
2023-05-05T14:13:48.226Z,2.55
2023-05-05T14:16:05.913Z,5.30
2023-05-05T14:18:23.212Z,3.30
2023-05-05T14:20:40.423Z,4.97
2023-05-05T14:22:57.734Z,3.92
2023-05-05T14:25:15.029Z,2.35
2023-05-05T14:27:32.277Z,1.48
2023-05-05T14:29:49.583Z,3.03
2023-05-05T14:32:06.932Z,1.75
2023-05-05T14:34:24.194Z,3.28
2023-05-05T14:36:41.496Z,3.03
2023-05-05T14:38:58.838Z,4.68
2023-05-05T14:41:16.005Z,3.22
2023-05-05T14:43:33.310Z,5.18
2023-05-05T14:45:50.272Z,5.65
2023-05-05T14:48:07.577Z,4.55
2023-05-05T14:50:25.350Z,4.43
2023-05-05T14:52:43.762Z,3.60
2023-05-05T14:55:00.990Z,3.85
2023-05-05T14:57:18.072Z,3.42
2023-05-05T14:59:36.360Z,3.63
2023-05-05T15:01:53.302Z,3.00
2023-05-05T15:04:10.665Z,3.50
2023-05-05T15:06:28.317Z,3.95
2023-05-05T15:08:46.454Z,4.88
2023-05-05T15:11:03.760Z,4.65
2023-05-05T15:13:21.060Z,4.60
2023-05-05T15:15:38.269Z,1.85
2023-05-05T15:17:56.585Z,3.70
2023-05-05T15:20:13.971Z,4.28
2023-05-05T15:22:31.313Z,2.92
2023-05-05T15:24:48.655Z,4.20
2023-05-05T15:27:05.852Z,4.70
2023-05-05T15:29:24.126Z,4.80
2023-05-05T15:31:42.408Z,5.15
2023-05-05T15:34:00.730Z,4.75
2023-05-05T15:36:20.482Z,5.45
2023-05-05T15:38:37.762Z,3.10
2023-05-05T15:40:56.110Z,3.85
2023-05-05T15:43:15.811Z,3.90
2023-05-05T15:45:33.219Z,6.28
2023-05-05T15:47:50.602Z,5.15
2023-05-05T15:50:08.961Z,3.38
2023-05-05T15:52:26.184Z,5.43
2023-05-05T15:54:43.442Z,5.47
2023-05-05T15:57:00.691Z,5.82
2023-05-05T15:59:19.183Z,4.05
2023-05-05T16:01:36.888Z,2.65
2023-05-05T16:03:54.081Z,3.35
2023-05-05T16:06:11.404Z,3.25
2023-05-05T16:08:28.508Z,4.43
2023-05-05T16:10:45.723Z,3.03
2023-05-05T16:13:02.798Z,3.45
2023-05-05T16:15:20.139Z,3.65
2023-05-05T16:17:37.431Z,2.40
2023-05-05T16:19:54.751Z,2.35
2023-05-05T16:22:11.771Z,2.42
2023-05-05T16:24:29.028Z,1.98
2023-05-05T16:26:45.964Z,3.13
2023-05-05T16:29:03.265Z,2.67
2023-05-05T16:31:20.570Z,1.75
2023-05-05T16:33:37.822Z,1.58
2023-05-05T16:35:54.893Z,2.42
2023-05-05T16:38:12.218Z,1.58
2023-05-05T16:40:30.493Z,2.75
2023-05-05T16:42:48.495Z,2.08
2023-05-05T16:45:05.550Z,0.77
2023-05-05T16:47:22.859Z,2.85
2023-05-05T16:49:39.920Z,1.90
2023-05-05T16:51:57.367Z,2.05
2023-05-05T16:54:14.989Z,1.30
2023-05-05T16:56:32.314Z,0.90
2023-05-05T16:58:49.770Z,1.90
2023-05-05T17:01:07.084Z,0.70
2023-05-05T17:03:24.389Z,2.05
2023-05-05T17:05:41.402Z,1.02
2023-05-05T17:07:58.772Z,1.38
2023-05-05T17:10:16.495Z,1.00
2023-05-05T17:12:33.611Z,1.63
2023-05-05T17:14:50.646Z,1.23
2023-05-05T17:17:07.995Z,1.85
2023-05-05T17:19:26.197Z,3.17
2023-05-05T17:21:43.418Z,1.05
2023-05-05T17:24:00.632Z,0.90
2023-05-05T17:26:17.856Z,1.52
2023-05-05T17:28:35.121Z,0.82
2023-05-05T17:30:52.414Z,1.05
2023-05-05T17:33:09.717Z,0.95
2023-05-05T17:35:27.000Z,1.95
2023-05-05T17:37:44.064Z,1.80
2023-05-05T17:40:01.370Z,1.75
2023-05-05T17:42:18.392Z,2.08
2023-05-05T17:44:35.679Z,1.60
2023-05-05T17:46:52.909Z,1.75
2023-05-05T17:49:10.225Z,1.58
2023-05-05T17:51:27.450Z,1.20
2023-05-05T17:53:44.763Z,1.73
2023-05-05T17:56:02.053Z,1.33
2023-05-05T17:58:19.440Z,1.08
2023-05-05T18:00:36.714Z,1.40
2023-05-05T18:02:54.486Z,1.80
2023-05-05T18:05:12.013Z,1.05
2023-05-05T18:07:29.286Z,1.80
2023-05-05T18:09:46.516Z,1.05
2023-05-05T18:12:03.793Z,1.27
2023-05-05T18:14:21.108Z,1.20
2023-05-05T18:16:38.455Z,1.60
2023-05-05T18:18:55.473Z,0.75
2023-05-05T18:21:12.500Z,1.88
2023-05-05T18:23:29.816Z,1.45
2023-05-05T18:25:46.746Z,2.33
2023-05-05T18:28:04.428Z,1.50
2023-05-05T18:30:21.743Z,1.13
2023-05-05T18:32:39.021Z,4.55
2023-05-05T18:34:56.355Z,1.63
2023-05-05T18:37:13.579Z,1.63
2023-05-05T18:39:30.946Z,2.78
2023-05-05T18:41:48.288Z,1.60
2023-05-05T18:44:06.278Z,1.50
2023-05-05T18:46:23.619Z,1.52
2023-05-05T18:48:41.103Z,2.30
2023-05-05T18:50:58.390Z,3.25
2023-05-05T18:53:15.616Z,2.58
2023-05-05T18:55:33.312Z,2.80
2023-05-05T18:57:51.535Z,1.70
2023-05-05T19:00:08.806Z,1.70
2023-05-05T19:02:26.085Z,1.65
2023-05-05T19:04:43.436Z,1.83
2023-05-05T19:07:01.095Z,3.38
2023-05-05T19:09:18.372Z,3.75
2023-05-05T19:11:35.581Z,4.70
2023-05-05T19:13:52.818Z,3.75
2023-05-05T19:16:10.147Z,2.17
2023-05-05T19:18:27.422Z,2.65
2023-05-05T19:20:44.678Z,1.70
2023-05-05T19:23:02.638Z,2.63
2023-05-05T19:25:19.973Z,3.38
2023-05-05T19:27:37.282Z,5.45
2023-05-05T19:29:54.277Z,2.67
2023-05-05T19:32:11.372Z,2.17
2023-05-05T19:34:28.760Z,2.53
2023-05-05T19:36:46.054Z,1.75
2023-05-05T19:39:03.345Z,4.22
2023-05-05T19:41:21.255Z,1.95
2023-05-05T19:43:38.599Z,1.77
2023-05-05T19:45:55.906Z,1.50
2023-05-05T19:48:12.963Z,3.55
2023-05-05T19:50:29.931Z,3.22
2023-05-05T19:52:47.979Z,2.30
2023-05-05T19:55:06.197Z,2.25
2023-05-05T19:57:23.499Z,4.22
2023-05-05T19:59:40.677Z,3.13
2023-05-05T20:01:58.002Z,3.85
2023-05-05T20:04:15.319Z,3.78
2023-05-05T20:06:32.585Z,3.40
2023-05-05T20:08:49.760Z,1.35
2023-05-05T20:11:06.717Z,4.22
2023-05-05T20:13:23.723Z,1.75
2023-05-05T20:15:41.113Z,2.90
2023-05-05T20:17:58.396Z,4.07
2023-05-05T20:20:15.952Z,2.70
2023-05-05T20:22:34.234Z,4.13
2023-05-05T20:24:51.511Z,3.72
2023-05-05T20:27:08.726Z,3.63
2023-05-05T20:29:26.014Z,3.17
2023-05-05T20:31:44.358Z,2.85
2023-05-05T20:34:01.626Z,3.63
2023-05-05T20:36:18.942Z,4.97
2023-05-05T20:38:36.275Z,2.45
2023-05-05T20:40:54.218Z,2.30
2023-05-05T20:43:11.304Z,3.17
2023-05-05T20:45:28.540Z,3.35
2023-05-05T20:47:45.861Z,4.13
2023-05-05T20:50:03.094Z,3.05
2023-05-05T20:52:20.526Z,4.40
2023-05-05T20:54:37.823Z,2.50
2023-05-05T20:56:55.476Z,3.13
2023-05-05T20:59:12.796Z,3.53
2023-05-05T21:01:29.807Z,2.00
2023-05-05T21:03:46.776Z,1.73
2023-05-05T21:06:04.013Z,3.30
2023-05-05T21:08:21.352Z,5.90
2023-05-05T21:10:38.374Z,3.45
2023-05-05T21:12:55.639Z,4.10
2023-05-05T21:15:12.658Z,2.95
2023-05-05T21:17:29.930Z,3.05
2023-05-05T21:19:47.265Z,4.18
2023-05-05T21:22:05.514Z,2.63
2023-05-05T21:24:22.837Z,3.55
2023-05-05T21:26:40.130Z,4.03
2023-05-05T21:28:57.464Z,4.38
2023-05-05T21:31:21.671Z,2.75
2023-05-05T21:33:39.274Z,3.72
2023-05-05T21:35:56.162Z,4.00
2023-05-05T21:38:13.031Z,4.40
2023-05-05T21:40:30.414Z,3.50
2023-05-05T21:42:47.753Z,4.43
2023-05-05T21:45:05.416Z,7.43
2023-05-05T21:47:22.742Z,3.85
2023-05-05T21:49:39.801Z,2.70
2023-05-05T21:51:57.118Z,2.40
2023-05-05T21:54:13.991Z,2.75
2023-05-05T21:56:31.256Z,2.75
2023-05-05T21:58:49.450Z,2.10
2023-05-05T22:01:06.830Z,4.22
2023-05-05T22:03:24.594Z,3.72
2023-05-05T22:05:42.013Z,3.70
2023-05-05T22:07:59.076Z,4.07
2023-05-05T22:10:16.412Z,3.72
2023-05-05T22:12:33.486Z,4.18
2023-05-05T22:14:51.120Z,5.18
2023-05-05T22:17:08.368Z,2.40
2023-05-05T22:19:26.611Z,4.03
2023-05-05T22:21:43.496Z,3.10
2023-05-05T22:24:00.799Z,2.08
2023-05-05T22:26:18.060Z,4.45
2023-05-05T22:28:35.339Z,2.47
2023-05-05T22:30:52.633Z,3.67
2023-05-05T22:33:09.877Z,4.07
2023-05-05T22:35:27.142Z,2.97
2023-05-05T22:37:44.587Z,4.03
2023-05-05T22:40:01.880Z,4.15
2023-05-05T22:42:19.119Z,3.28
2023-05-05T22:44:35.947Z,6.82
2023-05-05T22:46:53.295Z,6.03
2023-05-05T22:49:10.679Z,3.97
2023-05-05T22:51:27.937Z,4.95
2023-05-05T22:53:46.140Z,3.72
2023-05-05T22:56:03.263Z,4.60
2023-05-05T22:58:20.465Z,7.28
2023-05-05T23:00:37.716Z,5.78
2023-05-05T23:02:55.442Z,7.32
2023-05-05T23:05:12.975Z,5.97
2023-05-05T23:07:31.317Z,3.40
2023-05-05T23:09:48.592Z,5.00
2023-05-05T23:12:06.220Z,4.25
2023-05-05T23:14:23.140Z,3.08
2023-05-05T23:16:40.160Z,5.53
2023-05-05T23:18:57.080Z,3.83
2023-05-05T23:21:14.676Z,4.43
2023-05-05T23:23:32.082Z,3.78
2023-05-05T23:25:49.296Z,4.63
2023-05-05T23:28:06.564Z,5.20
2023-05-05T23:30:24.860Z,3.90
2023-05-05T23:32:42.159Z,5.30
2023-05-05T23:34:59.431Z,5.35
2023-05-05T23:37:16.407Z,7.93
2023-05-05T23:39:33.620Z,8.23
2023-05-05T23:41:50.546Z,5.20
2023-05-05T23:44:08.595Z,6.85
2023-05-05T23:46:26.260Z,4.43
2023-05-05T23:48:44.552Z,6.15
2023-05-05T23:51:02.709Z,4.85
2023-05-05T23:53:20.010Z,5.97
2023-05-05T23:55:37.305Z,5.28
2023-05-05T23:57:54.679Z,11.40
